Time;durP1;ratioP1;P1;durP2;ratioP2;P2;SDS_P1;SDS_P2;PMS_P1;PMS_P2;Temp;Humidity;BMP_temperature;BMP_pressure;BME280_temperature;BME280_humidity;BME280_pressure;Samples;Min_cycle;Max_cycle;Signal;HPM_P1;HPM_P2
2022/04/14 00:01:48;;;;;;;8.50;4.37;;;;;;;14.48;75.19;100715.59;5053446;28;21277;-71
2022/04/14 00:04:15;;;;;;;4.63;4.23;;;;;;;14.40;75.30;100712.81;5057839;28;20460;-71
2022/04/14 00:06:41;;;;;;;8.17;4.00;;;;;;;14.37;75.92;100716.66;5070552;28;20472;-71
2022/04/14 00:09:08;;;;;;;8.23;4.10;;;;;;;14.39;75.91;100720.06;5078641;28;20733;-70
2022/04/14 00:11:35;;;;;;;6.93;4.37;;;;;;;14.38;76.28;100720.22;5068197;28;20506;-70
2022/04/14 00:14:01;;;;;;;7.60;4.60;;;;;;;14.34;76.68;100710.72;5064757;28;20479;-70
2022/04/14 00:16:28;;;;;;;5.00;4.13;;;;;;;14.36;76.64;100714.97;5064457;28;20485;-70
2022/04/14 00:18:56;;;;;;;6.50;4.67;;;;;;;14.30;76.87;100704.81;5068698;28;20462;-70
2022/04/14 00:21:23;;;;;;;8.43;5.10;;;;;;;14.32;76.98;100709.06;5081066;28;20475;-71
2022/04/14 00:23:49;;;;;;;8.30;5.23;;;;;;;14.20;77.24;100715.66;5064827;28;20531;-70
2022/04/14 00:26:16;;;;;;;5.13;4.50;;;;;;;14.17;77.39;100707.91;5076770;28;21162;-70
2022/04/14 00:28:43;;;;;;;11.47;5.80;;;;;;;14.27;77.35;100694.41;5063714;28;20491;-71
2022/04/14 00:31:09;;;;;;;6.37;4.20;;;;;;;14.22;77.37;100700.22;5079326;28;20480;-71
2022/04/14 00:33:36;;;;;;;7.30;5.20;;;;;;;14.19;77.45;100703.22;5081343;28;20428;-70
2022/04/14 00:36:05;;;;;;;9.97;5.47;;;;;;;14.21;77.56;100701.22;5061183;28;20497;-70
2022/04/14 00:38:32;;;;;;;6.23;4.40;;;;;;;14.06;78.43;100698.22;5061442;28;20475;-70
2022/04/14 00:40:59;;;;;;;6.40;4.10;;;;;;;14.14;77.97;100702.81;5071011;28;20708;-69
2022/04/14 00:43:30;;;;;;;5.47;4.97;;;;;;;13.97;78.86;100709.03;5061933;28;20489;-69
2022/04/14 00:45:58;;;;;;;7.03;4.00;;;;;;;14.11;78.42;100705.81;5062043;28;20464;-70
2022/04/14 00:48:24;;;;;;;6.23;5.23;;;;;;;14.06;78.64;100713.47;5062979;28;20441;-70
2022/04/14 00:50:51;;;;;;;5.20;4.30;;;;;;;14.03;78.87;100711.13;5066089;28;20488;-70
2022/04/14 00:53:19;;;;;;;5.63;3.63;;;;;;;14.01;79.26;100710.41;5100293;28;20531;-71
2022/04/14 00:55:46;;;;;;;5.53;4.10;;;;;;;13.91;79.76;100707.81;5097631;28;20468;-71
2022/04/14 00:58:13;;;;;;;5.53;4.47;;;;;;;14.03;79.28;100711.13;5081640;28;20987;-71
2022/04/14 01:00:39;;;;;;;5.00;4.43;;;;;;;14.04;79.36;100716.31;5080739;28;20533;-70
2022/04/14 01:03:06;;;;;;;8.33;4.47;;;;;;;13.93;79.60;100700.41;5081660;28;20491;-71
2022/04/14 01:05:33;;;;;;;5.23;3.70;;;;;;;13.99;79.66;100705.22;5086308;28;20482;-71
2022/04/14 01:08:01;;;;;;;10.50;3.90;;;;;;;13.93;79.84;100709.31;5100666;28;20898;-71
2022/04/14 01:10:29;;;;;;;6.57;3.63;;;;;;;13.91;80.21;100710.47;5094743;28;20978;-71
2022/04/14 01:12:55;;;;;;;3.70;3.37;;;;;;;13.91;80.12;100715.88;5081740;28;20521;-71
2022/04/14 01:15:22;;;;;;;3.83;3.53;;;;;;;13.85;80.73;100711.94;5097842;28;20886;-71
2022/04/14 01:17:49;;;;;;;5.00;3.47;;;;;;;13.91;80.57;100719.38;5101804;28;20438;-71
2022/04/14 01:20:16;;;;;;;3.60;3.30;;;;;;;13.74;81.13;100709.44;5081504;28;20452;-71
2022/04/14 01:22:46;;;;;;;4.17;2.73;;;;;;;13.88;81.53;100716.16;5080318;28;20492;-72
2022/04/14 01:25:14;;;;;;;12.17;2.80;;;;;;;13.81;81.54;100707.84;5084370;28;20461;-72
2022/04/14 01:27:41;;;;;;;3.27;2.63;;;;;;;13.72;81.88;100701.53;5095785;28;20462;-72
2022/04/14 01:30:09;;;;;;;7.67;3.20;;;;;;;13.66;82.28;100712.03;5098277;28;20476;-72
2022/04/14 01:32:36;;;;;;;4.17;2.03;;;;;;;13.68;81.75;100713.59;5089271;28;20489;-72
2022/04/14 01:35:02;;;;;;;2.50;2.20;;;;;;;13.61;82.03;100708.94;5099830;28;20510;-72
2022/04/14 01:37:29;;;;;;;2.83;2.13;;;;;;;13.77;82.11;100700.25;5099560;28;20499;-72
2022/04/14 01:39:56;;;;;;;4.43;2.00;;;;;;;13.50;82.70;100707.31;5086157;28;20455;-72
2022/04/14 01:42:24;;;;;;;3.33;2.17;;;;;;;13.38;83.55;100717.38;5080060;28;20508;-71
2022/04/14 01:44:50;;;;;;;4.70;2.00;;;;;;;13.49;83.89;100703.78;5096737;28;20446;-70
2022/04/14 01:47:17;;;;;;;3.70;2.60;;;;;;;13.46;83.58;100720.19;5081075;28;20502;-70
2022/04/14 01:49:44;;;;;;;4.80;1.93;;;;;;;13.35;84.10;100715.00;5079585;28;20433;-71
2022/04/14 01:52:11;;;;;;;2.20;1.90;;;;;;;13.28;84.85;100716.53;5087958;28;20544;-70
2022/04/14 01:54:37;;;;;;;3.00;1.73;;;;;;;13.16;84.78;100714.03;5090660;28;20459;-69
2022/04/14 01:57:05;;;;;;;2.10;1.80;;;;;;;13.33;84.09;100716.97;5082652;28;20540;-70
2022/04/14 01:59:33;;;;;;;3.30;2.70;;;;;;;13.45;83.94;100723.00;5088424;28;20502;-71
2022/04/14 02:02:00;;;;;;;2.43;2.20;;;;;;;13.37;84.04;100713.84;5076039;28;20464;-71
2022/04/14 02:04:26;;;;;;;2.80;2.10;;;;;;;13.36;84.19;100696.03;5080803;28;20490;-69
2022/04/14 02:06:53;;;;;;;2.37;2.17;;;;;;;13.35;84.27;100710.47;5080544;28;20873;-71
2022/04/14 02:09:20;;;;;;;6.47;1.83;;;;;;;13.38;84.45;100703.94;5081608;28;20448;-71
2022/04/14 02:11:46;;;;;;;2.83;1.93;;;;;;;13.51;83.99;100703.63;5080255;28;20479;-71
2022/04/14 02:14:13;;;;;;;3.20;2.20;;;;;;;13.42;83.52;100709.88;5082923;28;20967;-71
2022/04/14 02:16:41;;;;;;;2.50;2.30;;;;;;;13.48;83.54;100701.25;5082820;28;21069;-70
2022/04/14 02:19:08;;;;;;;2.50;2.30;;;;;;;13.45;83.60;100696.16;5094479;28;20444;-69
2022/04/14 02:21:34;;;;;;;3.70;2.60;;;;;;;13.46;83.25;100685.28;5080307;28;20468;-71
2022/04/14 02:24:01;;;;;;;2.73;2.23;;;;;;;13.37;83.17;100688.84;5086182;28;20578;-70
2022/04/14 02:26:28;;;;;;;3.73;2.70;;;;;;;13.28;83.44;100682.50;5090952;28;20506;-70
2022/04/14 02:28:55;;;;;;;4.03;2.20;;;;;;;13.31;83.32;100681.34;5081293;28;20495;-71
2022/04/14 02:31:22;;;;;;;2.63;2.10;;;;;;;13.30;83.34;100679.66;5089010;28;20502;-71
2022/04/14 02:33:50;;;;;;;2.70;2.50;;;;;;;13.27;83.45;100678.09;5081851;28;20459;-71
2022/04/14 02:36:17;;;;;;;3.33;2.30;;;;;;;13.31;83.32;100684.91;5099585;28;20498;-70
2022/04/14 02:38:45;;;;;;;4.93;2.83;;;;;;;13.31;83.38;100687.59;5089104;28;20475;-69
2022/04/14 02:41:12;;;;;;;4.07;2.57;;;;;;;13.36;83.00;100684.47;5093514;28;20482;-69
2022/04/14 02:43:38;;;;;;;5.53;2.40;;;;;;;13.25;83.49;100690.00;5086004;28;20508;-70
2022/04/14 02:46:05;;;;;;;3.43;2.77;;;;;;;13.24;83.78;100696.34;5098471;28;20543;-68
2022/04/14 02:48:32;;;;;;;4.00;2.93;;;;;;;13.17;83.93;100696.09;5087535;28;20454;-69
2022/04/14 02:51:01;;;;;;;4.40;3.20;;;;;;;13.21;83.86;100691.28;5087853;28;20483;-69
2022/04/14 02:53:28;;;;;;;5.83;3.03;;;;;;;13.23;83.91;100687.47;5099396;28;20455;-68
2022/04/14 02:55:54;;;;;;;4.27;2.97;;;;;;;13.16;84.01;100699.78;5097809;28;20470;-69
2022/04/14 02:58:21;;;;;;;4.77;2.53;;;;;;;13.16;83.98;100691.72;5080477;28;20436;-69
2022/04/14 03:00:49;;;;;;;5.57;2.60;;;;;;;13.09;84.34;100675.34;5079729;28;20506;-70
2022/04/14 03:03:16;;;;;;;3.13;2.73;;;;;;;13.32;83.22;100664.28;5081167;28;20487;-70
2022/04/14 03:05:43;;;;;;;3.47;2.97;;;;;;;13.15;83.38;100676.59;5080201;28;20499;-70
2022/04/14 03:08:11;;;;;;;4.00;2.73;;;;;;;12.97;84.40;100679.22;5079009;28;20460;-71
2022/04/14 03:10:37;;;;;;;5.70;2.80;;;;;;;12.92;84.89;100676.13;5086350;28;20562;-70
2022/04/14 03:13:04;;;;;;;5.80;3.00;;;;;;;13.11;84.11;100668.00;5100160;28;20477;-69
2022/04/14 03:15:31;;;;;;;4.10;3.50;;;;;;;12.98;84.12;100665.66;5090900;28;20471;-70
2022/04/14 03:17:57;;;;;;;4.00;3.37;;;;;;;13.05;84.58;100657.00;5099750;28;20799;-69
2022/04/14 03:20:24;;;;;;;2.90;2.33;;;;;;;12.93;85.13;100656.31;5082877;28;20486;-72
2022/04/14 03:22:51;;;;;;;3.60;3.00;;;;;;;12.93;84.97;100661.69;5093767;28;20485;-72
2022/04/14 03:25:19;;;;;;;3.50;3.10;;;;;;;12.96;85.26;100664.09;5099114;28;20443;-72
2022/04/14 03:27:45;;;;;;;3.10;2.77;;;;;;;12.91;85.46;100667.19;5089630;28;20443;-72
2022/04/14 03:30:12;;;;;;;3.57;2.97;;;;;;;12.91;85.28;100679.78;5090609;28;20452;-72
2022/04/14 03:32:43;;;;;;;5.77;2.93;;;;;;;12.99;85.04;100666.50;5102314;28;20447;-73
2022/04/14 03:35:10;;;;;;;5.43;2.90;;;;;;;12.84;85.74;100674.16;5094267;28;20490;-72
2022/04/14 03:37:37;;;;;;;4.67;3.30;;;;;;;12.75;85.99;100677.72;5083056;28;20455;-72
2022/04/14 03:40:05;;;;;;;6.30;3.03;;;;;;;12.66;86.64;100679.41;5083705;28;20447;-72
2022/04/14 03:42:33;;;;;;;5.67;3.60;;;;;;;12.77;86.34;100663.13;5086947;28;21071;-71
2022/04/14 03:45:00;;;;;;;4.77;3.67;;;;;;;12.89;85.76;100663.81;5100160;28;20479;-71
2022/04/14 03:47:26;;;;;;;4.17;3.30;;;;;;;13.05;84.87;100663.19;5101706;28;20509;-71
2022/04/14 03:49:53;;;;;;;4.50;3.40;;;;;;;12.91;85.14;100667.19;5094675;28;20946;-71
2022/04/14 03:52:20;;;;;;;4.83;2.67;;;;;;;12.99;84.77;100661.97;5092362;28;21068;-71
2022/04/14 03:54:47;;;;;;;3.37;2.70;;;;;;;13.07;84.31;100657.69;5082938;28;20448;-70
2022/04/14 03:57:14;;;;;;;3.97;3.20;;;;;;;13.10;84.07;100660.09;5082789;28;20479;-71
2022/04/14 03:59:42;;;;;;;4.07;2.60;;;;;;;13.11;84.04;100651.06;5082947;28;20920;-71
2022/04/14 04:02:08;;;;;;;4.33;2.70;;;;;;;13.21;83.60;100653.69;5082281;28;20480;-71
2022/04/14 04:04:35;;;;;;;4.63;3.83;;;;;;;13.15;83.27;100657.81;5083236;28;20491;-70
2022/04/14 04:07:02;;;;;;;4.70;3.13;;;;;;;13.00;83.79;100652.06;5083143;28;20476;-70
2022/04/14 04:09:32;;;;;;;3.50;3.20;;;;;;;12.94;84.30;100656.19;5083110;28;20463;-70
2022/04/14 04:11:58;;;;;;;5.30;2.97;;;;;;;12.94;84.73;100658.03;5088440;28;20479;-70
2022/04/14 04:14:25;;;;;;;5.13;3.97;;;;;;;13.01;84.40;100656.44;5088282;28;21277;-70
2022/04/14 04:16:53;;;;;;;4.97;4.27;;;;;;;13.14;84.14;100656.09;5097706;28;20475;-70
2022/04/14 04:19:20;;;;;;;6.43;4.00;;;;;;;13.06;83.63;100666.75;5086842;28;20998;-70
2022/04/14 04:21:46;;;;;;;5.20;4.57;;;;;;;12.91;84.41;100661.84;5100360;28;20467;-71
2022/04/14 04:24:13;;;;;;;4.67;4.03;;;;;;;12.94;84.26;100666.09;5102209;28;20557;-71
2022/04/14 04:26:39;;;;;;;4.90;4.40;;;;;;;12.93;84.39;100670.63;5085590;28;20514;-72
2022/04/14 04:29:07;;;;;;;4.53;4.10;;;;;;;12.97;84.68;100679.22;5094467;28;20474;-72
2022/04/14 04:31:33;;;;;;;5.80;4.10;;;;;;;12.97;84.19;100680.06;5087078;28;20492;-71
2022/04/14 04:34:01;;;;;;;6.73;5.40;;;;;;;12.98;84.17;100679.06;5083755;28;20464;-71
2022/04/14 04:36:28;;;;;;;8.30;5.03;;;;;;;13.01;84.28;100677.91;5086525;28;20478;-70
2022/04/14 04:38:58;;;;;;;6.50;5.90;;;;;;;12.97;84.47;100688.09;5081958;28;20498;-70
2022/04/14 04:41:25;;;;;;;8.50;6.57;;;;;;;12.99;84.38;100680.75;5079819;28;20535;-70
2022/04/14 04:43:51;;;;;;;10.73;6.80;;;;;;;13.03;84.34;100692.03;5082986;28;20570;-70
2022/04/14 04:46:18;;;;;;;9.53;7.40;;;;;;;12.98;84.49;100699.69;5095333;28;20524;-71
2022/04/14 04:48:45;;;;;;;9.90;7.80;;;;;;;12.98;84.42;100700.53;5101741;28;20455;-71
2022/04/14 04:51:13;;;;;;;8.80;6.30;;;;;;;13.00;84.40;100700.38;5080794;28;20518;-71
2022/04/14 04:53:39;;;;;;;9.83;6.73;;;;;;;13.05;84.46;100700.78;5080548;28;20448;-71
2022/04/14 04:56:06;;;;;;;8.87;7.30;;;;;;;13.09;84.42;100690.59;5080762;28;20471;-71
2022/04/14 04:58:33;;;;;;;6.23;5.50;;;;;;;13.13;84.46;100706.28;5080489;28;20496;-71
2022/04/14 05:01:00;;;;;;;10.33;6.60;;;;;;;13.14;84.29;100713.34;5082115;28;20503;-71
2022/04/14 05:03:26;;;;;;;5.03;4.33;;;;;;;13.15;84.51;100715.03;5092825;28;20487;-71
2022/04/14 05:05:53;;;;;;;6.67;4.13;;;;;;;13.14;84.09;100721.41;5085128;28;20555;-70
2022/04/14 05:08:21;;;;;;;6.10;4.07;;;;;;;13.08;84.48;100715.75;5080386;28;20889;-70
2022/04/14 05:10:48;;;;;;;5.10;4.07;;;;;;;13.09;84.09;100717.44;5080463;28;20497;-70
2022/04/14 05:13:15;;;;;;;5.67;3.83;;;;;;;12.98;84.15;100727.38;5081680;28;20443;-70
2022/04/14 05:15:42;;;;;;;4.60;4.17;;;;;;;12.93;84.64;100723.41;5078166;28;20499;-70
2022/04/14 05:18:09;;;;;;;6.30;4.83;;;;;;;12.92;84.86;100721.75;5076671;28;20969;-70
2022/04/14 05:20:36;;;;;;;6.43;5.20;;;;;;;12.92;84.81;100721.75;5082322;28;20467;-71
2022/04/14 05:23:02;;;;;;;7.73;5.27;;;;;;;12.95;84.33;100726.78;5091906;28;20467;-70
2022/04/14 05:25:31;;;;;;;5.90;4.67;;;;;;;12.90;84.86;100727.25;5097232;28;20488;-70
2022/04/14 05:27:57;;;;;;;9.00;5.70;;;;;;;12.92;85.29;100735.16;5085294;28;20580;-70
2022/04/14 05:30:24;;;;;;;6.87;5.40;;;;;;;12.94;85.39;100742.06;5083624;28;20481;-70
2022/04/14 05:32:51;;;;;;;8.00;5.80;;;;;;;13.00;85.23;100751.38;5092288;28;20798;-69
2022/04/14 05:35:18;;;;;;;9.57;6.50;;;;;;;12.99;84.72;100747.00;5099021;28;20455;-71
2022/04/14 05:37:45;;;;;;;7.93;6.30;;;;;;;13.09;84.57;100753.22;5086900;28;20475;-70
2022/04/14 05:40:12;;;;;;;9.33;6.90;;;;;;;12.96;85.10;100758.88;5079909;28;20470;-70
2022/04/14 05:42:45;;;;;;;11.47;6.87;;;;;;;13.04;85.17;100759.97;5078281;28;20455;-72
2022/04/14 05:45:13;;;;;;;10.83;7.67;;;;;;;13.06;84.96;100753.50;5084641;28;21088;-72
2022/04/14 05:47:40;;;;;;;13.10;8.13;;;;;;;13.02;84.94;100746.72;5096224;28;20482;-72
2022/04/14 05:50:07;;;;;;;9.50;7.20;;;;;;;13.18;84.83;100748.81;5078859;28;21043;-72
2022/04/14 05:52:34;;;;;;;14.40;8.77;;;;;;;13.19;84.68;100754.03;5079253;28;20475;-71
2022/04/14 05:55:02;;;;;;;12.20;8.20;;;;;;;13.29;84.39;100750.47;5090691;28;20448;-73
2022/04/14 05:57:29;;;;;;;9.07;7.00;;;;;;;13.29;84.46;100751.31;5080333;28;20859;-74
2022/04/14 05:59:58;;;;;;;12.57;8.03;;;;;;;13.33;84.12;100750.06;5079297;28;20452;-70
2022/04/14 06:02:25;;;;;;;11.63;7.70;;;;;;;13.40;84.19;100744.94;5079470;28;20473;-70
2022/04/14 06:04:52;;;;;;;15.27;9.37;;;;;;;13.49;83.98;100745.91;5090860;28;20495;-70
2022/04/14 06:07:18;;;;;;;11.87;9.97;;;;;;;13.42;84.52;100758.22;5077851;28;20953;-69
2022/04/14 06:09:45;;;;;;;9.97;8.57;;;;;;;13.58;84.06;100754.94;5079038;28;20505;-69
2022/04/14 06:12:12;;;;;;;11.10;9.13;;;;;;;13.51;84.13;100765.41;5078835;28;20502;-69
2022/04/14 06:14:38;;;;;;;11.90;9.30;;;;;;;13.49;84.08;100756.66;5078794;28;20436;-69
2022/04/14 06:17:07;;;;;;;13.47;9.07;;;;;;;13.49;83.95;100762.88;5078794;28;20536;-68
2022/04/14 06:19:33;;;;;;;13.70;10.43;;;;;;;13.41;83.81;100754.69;5078865;28;20433;-69
2022/04/14 06:22:00;;;;;;;13.80;9.50;;;;;;;13.60;83.22;100748.41;5077921;28;20484;-69
2022/04/14 06:24:27;;;;;;;15.53;9.67;;;;;;;13.52;83.61;100767.97;5078548;28;21046;-69
2022/04/14 06:26:54;;;;;;;13.80;9.80;;;;;;;13.56;83.56;100766.66;5079110;28;20476;-69
2022/04/14 06:29:20;;;;;;;11.97;10.67;;;;;;;13.68;83.75;100772.69;5079237;28;20439;-69
2022/04/14 06:31:47;;;;;;;15.60;12.20;;;;;;;13.70;83.17;100765.34;5077904;28;20483;-69
2022/04/14 06:34:15;;;;;;;17.23;12.30;;;;;;;13.69;83.01;100768.16;5078469;28;20428;-69
2022/04/14 06:36:42;;;;;;;16.03;11.30;;;;;;;13.80;83.03;100767.97;5078313;28;20468;-73
2022/04/14 06:39:12;;;;;;;19.53;11.67;;;;;;;14.00;82.23;100775.94;5078132;28;20583;-69
2022/04/14 06:41:39;;;;;;;15.07;12.40;;;;;;;14.07;81.73;100758.22;5078163;28;20527;-69
2022/04/14 06:44:06;;;;;;;16.27;11.90;;;;;;;14.09;81.41;100761.59;5077810;28;20517;-69
2022/04/14 06:46:33;;;;;;;18.53;13.97;;;;;;;14.35;80.90;100774.31;5079287;28;20468;-69
2022/04/14 06:49:00;;;;;;;15.10;11.90;;;;;;;14.41;80.39;100766.47;5070515;28;20618;-69
2022/04/14 06:51:28;;;;;;;15.97;12.00;;;;;;;14.58;79.51;100772.91;5080918;28;20506;-69
2022/04/14 06:53:54;;;;;;;14.10;11.63;;;;;;;14.63;79.05;100759.81;5077298;28;20488;-69
2022/04/14 06:56:21;;;;;;;13.63;11.10;;;;;;;14.77;78.30;100760.25;5086275;28;20562;-69
2022/04/14 06:58:48;;;;;;;14.07;11.77;;;;;;;14.83;77.56;100765.88;5077303;28;20503;-69
2022/04/14 07:01:14;;;;;;;13.53;11.87;;;;;;;15.02;77.35;100766.69;5076400;28;20494;-69
2022/04/14 07:03:41;;;;;;;14.57;11.80;;;;;;;15.47;76.09;100775.56;5078135;28;20451;-69
2022/04/14 07:06:08;;;;;;;15.50;12.10;;;;;;;15.40;75.14;100764.59;5076672;28;20841;-69
2022/04/14 07:08:38;;;;;;;17.63;12.00;;;;;;;15.79;74.63;100767.66;5087053;28;20483;-69
2022/04/14 07:11:05;;;;;;;16.60;13.40;;;;;;;15.88;73.38;100771.25;5077011;28;20489;-69
2022/04/14 07:13:32;;;;;;;16.60;12.10;;;;;;;16.13;72.83;100776.75;5077387;28;20456;-69
2022/04/14 07:16:00;;;;;;;21.40;15.57;;;;;;;15.90;72.73;100773.78;5076823;28;20483;-69
2022/04/14 07:18:27;;;;;;;20.90;15.67;;;;;;;16.12;71.73;100772.34;5078027;28;21055;-69
2022/04/14 07:20:53;;;;;;;25.80;16.60;;;;;;;16.38;70.64;100767.66;5074931;28;20538;-69
2022/04/14 07:23:20;;;;;;;25.27;18.33;;;;;;;16.12;71.05;100759.69;5076512;28;20460;-69
2022/04/14 07:25:48;;;;;;;22.37;17.63;;;;;;;16.00;72.43;100764.56;5096964;28;20482;-70
2022/04/14 07:28:15;;;;;;;31.77;20.90;;;;;;;16.12;70.74;100767.78;5097808;28;20419;-69
2022/04/14 07:30:42;;;;;;;29.50;20.67;;;;;;;16.06;72.71;100770.28;5086969;28;20502;-69
2022/04/14 07:33:08;;;;;;;28.80;21.10;;;;;;;16.46;70.61;100768.72;5076739;28;20444;-69
2022/04/14 07:35:35;;;;;;;26.40;20.30;;;;;;;16.48;69.47;100774.78;5076890;28;20473;-69
2022/04/14 07:38:02;;;;;;;29.30;19.53;;;;;;;16.10;71.40;100775.19;5076424;28;20544;-69
2022/04/14 07:40:29;;;;;;;30.80;18.37;;;;;;;16.28;71.31;100772.38;5080469;28;20768;-69
2022/04/14 07:42:57;;;;;;;28.90;18.00;;;;;;;16.71;70.92;100778.50;5076810;28;20460;-69
2022/04/14 07:45:24;;;;;;;27.93;20.10;;;;;;;16.27;71.00;100777.97;5080091;28;20487;-69
2022/04/14 07:47:51;;;;;;;31.47;21.40;;;;;;;15.92;72.30;100783.41;5077590;28;20432;-69
2022/04/14 07:50:20;;;;;;;31.17;22.07;;;;;;;15.43;74.02;100783.97;5075202;28;20456;-69
2022/04/14 07:52:51;;;;;;;31.37;21.63;;;;;;;15.52;74.61;100781.31;5076187;28;20474;-69
2022/04/14 07:55:21;;;;;;;35.50;24.20;;;;;;;15.35;75.05;100786.63;5076803;28;20503;-69
2022/04/14 07:57:49;;;;;;;37.10;25.13;;;;;;;15.17;75.28;100783.97;5075563;28;20490;-69
2022/04/14 08:00:18;;;;;;;35.20;24.83;;;;;;;15.59;74.31;100782.38;5079807;28;20440;-69
2022/04/14 08:02:49;;;;;;;35.33;25.33;;;;;;;16.26;72.79;100781.66;5080164;28;20553;-69
2022/04/14 08:05:16;;;;;;;37.83;26.77;;;;;;;16.51;71.57;100779.88;5079711;28;20487;-69
2022/04/14 08:07:43;;;;;;;38.57;25.37;;;;;;;16.50;69.85;100787.09;5080942;28;20432;-69
2022/04/14 08:10:10;;;;;;;38.20;27.43;;;;;;;16.93;69.25;100787.84;5079231;28;20994;-69
2022/04/14 08:12:36;;;;;;;36.93;27.90;;;;;;;17.05;67.82;100777.53;5080064;28;20481;-70
2022/04/14 08:15:04;;;;;;;37.93;27.47;;;;;;;17.59;65.66;100781.50;5080522;28;20448;-69
2022/04/14 08:17:33;;;;;;;32.17;25.57;;;;;;;18.81;62.46;100773.75;5079836;28;20884;-69
2022/04/14 08:20:00;;;;;;;37.10;26.03;;;;;;;18.36;61.81;100778.13;5078947;28;20474;-69
2022/04/14 08:22:26;;;;;;;32.90;25.57;;;;;;;19.23;59.61;100776.97;5078801;28;20813;-69
2022/04/14 08:24:53;;;;;;;35.33;27.30;;;;;;;18.53;61.92;100776.16;5079778;28;20510;-69
2022/04/14 08:27:20;;;;;;;33.03;24.40;;;;;;;19.18;60.68;100772.09;5079592;28;20510;-69
2022/04/14 08:29:46;;;;;;;31.10;23.37;;;;;;;19.84;57.73;100777.69;5080481;28;20519;-70
2022/04/14 08:32:13;;;;;;;32.60;24.23;;;;;;;18.86;60.40;100786.78;5078773;28;20517;-69
2022/04/14 08:34:44;;;;;;;29.70;24.73;;;;;;;18.88;59.09;100780.16;5078445;28;20449;-69
2022/04/14 08:37:11;;;;;;;30.40;24.27;;;;;;;17.63;62.79;100794.50;5080228;28;20510;-69
2022/04/14 08:39:38;;;;;;;30.17;24.90;;;;;;;17.19;64.06;100784.13;5080071;28;20490;-69
2022/04/14 08:42:09;;;;;;;33.20;25.90;;;;;;;17.44;64.66;100789.47;5077983;28;20472;-69
2022/04/14 08:44:37;;;;;;;32.27;25.07;;;;;;;17.17;64.48;100788.84;5079105;28;20537;-69
2022/04/14 08:47:06;;;;;;;36.23;26.97;;;;;;;16.94;65.57;100784.13;5078718;28;20574;-69
2022/04/14 08:49:33;;;;;;;34.77;28.60;;;;;;;17.43;64.98;100779.66;5078633;28;20445;-69
2022/04/14 08:52:02;;;;;;;36.13;27.03;;;;;;;17.02;65.48;100783.28;5091305;28;20482;-70
2022/04/14 08:54:29;;;;;;;36.97;27.77;;;;;;;16.83;66.38;100773.63;5087500;28;20524;-69
2022/04/14 08:56:58;;;;;;;42.20;28.90;;;;;;;16.82;65.97;100777.34;5078725;28;20476;-70
2022/04/14 08:59:25;;;;;;;36.77;28.30;;;;;;;17.16;65.07;100779.06;5090571;28;20443;-70
2022/04/14 09:01:52;;;;;;;42.23;31.00;;;;;;;17.05;64.95;100777.53;5078972;28;20464;-69
2022/04/14 09:04:19;;;;;;;41.70;30.87;;;;;;;16.69;66.96;100777.84;5079223;28;20456;-69
2022/04/14 09:06:45;;;;;;;42.60;29.97;;;;;;;16.92;65.75;100780.75;5078908;28;20468;-69
2022/04/14 09:09:14;;;;;;;37.87;31.30;;;;;;;17.05;64.95;100779.41;5079519;28;20448;-69
2022/04/14 09:11:41;;;;;;;42.90;29.53;;;;;;;16.98;64.35;100775.69;5077454;28;20507;-69
2022/04/14 09:14:07;;;;;;;44.57;31.60;;;;;;;16.91;64.91;100772.84;5079347;28;20448;-69
2022/04/14 09:16:34;;;;;;;35.57;27.63;;;;;;;17.67;62.78;100774.22;5078529;28;20475;-69
2022/04/14 09:19:02;;;;;;;42.43;31.13;;;;;;;17.74;62.54;100778.91;5077771;28;20870;-69
2022/04/14 09:21:28;;;;;;;38.67;30.70;;;;;;;17.81;62.79;100777.19;5078039;28;20468;-69
2022/04/14 09:23:55;;;;;;;38.80;28.30;;;;;;;18.18;60.42;100783.84;5077552;28;20444;-69
2022/04/14 09:26:24;;;;;;;40.20;29.30;;;;;;;17.76;61.89;100774.16;5077707;28;20479;-69
2022/04/14 09:29:04;;;;;;;39.87;30.33;;;;;;;17.75;61.51;100786.00;5099641;28;20473;-70
2022/04/14 09:31:32;;;;;;;40.50;30.70;;;;;;;17.95;61.79;100778.34;5098376;28;20544;-69
2022/04/14 09:33:59;;;;;;;40.83;29.37;;;;;;;19.84;57.38;100776.81;5098778;28;20998;-70
2022/04/14 09:36:27;;;;;;;33.73;27.23;;;;;;;21.89;51.00;100773.50;5096001;28;20511;-70
2022/04/14 09:38:58;;;;;;;31.53;25.33;;;;;;;23.18;46.41;100776.31;5098361;28;20551;-71
2022/04/14 09:41:33;;;;;;;28.07;23.80;;;;;;;25.24;40.70;100774.50;5086838;28;21226;-70
2022/04/14 09:44:02;;;;;;;27.43;23.60;;;;;;;24.98;41.34;100779.16;5085042;28;20482;-70
2022/04/14 09:46:29;;;;;;;24.50;21.80;;;;;;;25.45;40.00;100786.97;5098529;28;20552;-69
2022/04/14 09:49:07;;;;;;;25.30;21.30;;;;;;;26.47;38.67;100774.56;5082479;28;20498;-70
2022/04/14 09:51:35;;;;;;;20.90;18.70;;;;;;;25.64;37.83;100770.53;5077438;28;21074;-69
2022/04/14 09:54:15;;;;;;;22.40;19.43;;;;;;;25.48;38.15;100770.06;5078026;28;20466;-70
2022/04/14 09:56:45;;;;;;;26.43;21.83;;;;;;;24.24;40.94;100761.53;5077072;28;20460;-70
2022/04/14 09:59:13;;;;;;;21.70;17.40;;;;;;;24.53;40.11;100770.16;5077203;28;20446;-70
2022/04/14 10:01:40;;;;;;;23.00;18.50;;;;;;;25.19;39.06;100766.97;5076604;28;20515;-70
2022/04/14 10:04:10;;;;;;;21.60;15.60;;;;;;;23.45;40.33;100758.00;5076757;28;20460;-70
2022/04/14 10:06:37;;;;;;;20.20;16.30;;;;;;;22.72;42.34;100761.59;5076029;28;20488;-69
2022/04/14 10:09:04;;;;;;;21.83;17.00;;;;;;;21.94;44.14;100756.53;5077573;28;20777;-69
2022/04/14 10:11:35;;;;;;;25.17;19.03;;;;;;;22.21;45.12;100752.03;5077062;28;20647;-70
2022/04/14 10:14:12;;;;;;;25.97;19.07;;;;;;;23.33;42.14;100759.72;5077437;28;20965;-70
2022/04/14 10:16:40;;;;;;;23.63;18.60;;;;;;;22.06;45.02;100752.19;5076660;28;20801;-70
2022/04/14 10:19:08;;;;;;;23.30;17.63;;;;;;;22.59;43.22;100747.97;5077250;28;20816;-69
2022/04/14 10:21:36;;;;;;;19.53;16.03;;;;;;;23.77;40.76;100758.16;5072799;28;20769;-70
2022/04/14 10:24:03;;;;;;;28.80;19.80;;;;;;;22.01;44.36;100743.78;5076533;28;20452;-70
2022/04/14 10:26:30;;;;;;;20.60;17.07;;;;;;;22.72;44.36;100746.09;5076269;28;20515;-69
2022/04/14 10:28:56;;;;;;;21.23;17.93;;;;;;;22.31;43.51;100740.78;5082720;28;20432;-69
2022/04/14 10:31:25;;;;;;;23.73;19.77;;;;;;;22.40;44.25;100745.00;5089101;28;21087;-70
2022/04/14 10:33:53;;;;;;;23.10;18.63;;;;;;;22.94;42.26;100741.25;5082578;28;20476;-70
2022/04/14 10:36:19;;;;;;;21.27;17.00;;;;;;;22.90;41.70;100742.72;5087527;28;20515;-69
2022/04/14 10:38:47;;;;;;;23.60;18.07;;;;;;;23.71;40.92;100745.34;5074804;28;20491;-69
2022/04/14 10:41:16;;;;;;;26.30;19.60;;;;;;;24.41;39.40;100740.81;5077380;28;20475;-70
2022/04/14 10:43:45;;;;;;;23.93;17.67;;;;;;;22.83;41.70;100746.50;5081619;28;20465;-69
2022/04/14 10:46:15;;;;;;;20.63;17.40;;;;;;;22.34;43.49;100741.22;5085543;28;20484;-69
2022/04/14 10:48:44;;;;;;;19.83;16.67;;;;;;;22.19;44.08;100744.06;5077463;28;20440;-69
2022/04/14 10:51:19;;;;;;;22.27;17.27;;;;;;;20.37;47.67;100747.59;5075326;28;20496;-69
2022/04/14 10:53:50;;;;;;;24.20;17.33;;;;;;;20.83;47.55;100732.81;5096547;28;20482;-70
2022/04/14 10:57:01;;;;;;;23.80;16.43;;;;;;;22.65;43.20;100730.75;5096131;28;20475;-70
2022/04/14 10:59:45;;;;;;;23.73;17.93;;;;;;;22.61;43.05;100743.13;5076871;28;20493;-71
2022/04/14 11:02:12;;;;;;;25.07;18.07;;;;;;;21.62;45.94;100737.13;5085621;28;21263;-71
2022/04/14 11:04:52;;;;;;;24.47;18.43;;;;;;;22.31;43.76;100722.56;5077567;28;20523;-70
2022/04/14 11:07:21;;;;;;;20.67;16.40;;;;;;;21.41;45.35;100735.31;5075588;28;21025;-69
2022/04/14 11:09:57;;;;;;;18.30;14.67;;;;;;;21.02;46.54;100737.56;5077923;28;20478;-68
2022/04/14 11:12:25;;;;;;;19.57;15.07;;;;;;;22.91;44.16;100728.06;5076809;28;20475;-70
2022/04/14 11:14:54;;;;;;;14.83;12.40;;;;;;;21.79;44.45;100724.88;5083833;28;20804;-70
2022/04/14 11:17:48;;;;;;;14.90;11.37;;;;;;;23.30;41.42;100722.78;5080625;28;20497;-70
2022/04/14 11:20:17;;;;;;;16.73;12.30;;;;;;;23.01;41.25;100724.88;5070130;28;20472;-70